Time;durP1;ratioP1;P1;durP2;ratioP2;P2;SDS_P1;SDS_P2;PMS_P1;PMS_P2;Temp;Humidity;BMP_temperature;BMP_pressure;BME280_temperature;BME280_humidity;BME280_pressure;Samples;Min_cycle;Max_cycle;Signal;HPM_P1;HPM_P2
2021/11/30 08:15:50;;;;;;;122.90;70.67;;;;;;;0.87;81.68;96454.01;1854646;76;27997;-59
2021/11/30 08:18:20;;;;;;;39.23;7.78;;;;;;;0.86;81.47;96462.96;1797052;77;20912;-58
2021/11/30 08:20:49;;;;;;;7.58;4.12;;;;;;;0.97;80.95;96463.72;1790520;80;21055;-61
2021/11/30 08:23:15;;;;;;;6.17;4.35;;;;;;;1.06;79.88;96464.23;1790509;80;20916;-61
2021/11/30 08:25:42;;;;;;;8.95;5.00;;;;;;;1.16;79.27;96466.06;1790724;80;20967;-59
2021/11/30 08:28:10;;;;;;;6.33;5.20;;;;;;;1.25;79.03;96464.47;1790567;80;21019;-60
2021/11/30 08:30:38;;;;;;;7.33;4.58;;;;;;;1.31;78.56;96468.16;1790216;79;21462;-60
2021/11/30 08:33:07;;;;;;;5.60;4.50;;;;;;;1.38;77.68;96473.95;1790328;79;21123;-63
2021/11/30 08:35:35;;;;;;;6.05;4.62;;;;;;;1.41;77.86;96481.86;1789730;80;21002;-60
2021/11/30 08:38:04;;;;;;;7.03;4.70;;;;;;;1.43;77.66;96473.14;1789218;80;21142;-67
2021/11/30 08:40:32;;;;;;;6.30;4.67;;;;;;;1.47;77.96;96478.13;1822423;78;21035;-59
2021/11/30 08:42:59;;;;;;;7.03;4.65;;;;;;;1.50;77.68;96470.21;1823298;78;20974;-64
2021/11/30 08:45:26;;;;;;;8.80;4.83;;;;;;;1.55;76.80;96470.20;1825608;77;22307;-60
2021/11/30 08:47:53;;;;;;;7.20;4.58;;;;;;;1.57;76.26;96477.31;1826930;78;21015;-59
2021/11/30 08:50:20;;;;;;;7.33;4.33;;;;;;;1.62;75.47;96478.62;1819255;77;21572;-59
2021/11/30 08:52:55;;;;;;;6.05;4.33;;;;;;;1.69;76.20;96476.48;1814958;78;21018;-58
2021/11/30 08:55:25;;;;;;;6.78;4.45;;;;;;;1.75;74.97;96474.06;1817532;77;21155;-63
2021/11/30 08:57:54;;;;;;;5.80;4.15;;;;;;;1.71;74.38;96461.95;1815116;78;21106;-62
2021/11/30 09:00:25;;;;;;;5.45;4.33;;;;;;;1.62;74.67;96463.58;1827734;78;20876;-59
2021/11/30 09:02:57;;;;;;;5.33;4.20;;;;;;;1.56;75.57;96456.72;1826756;78;21001;-58
2021/11/30 09:05:25;;;;;;;6.47;4.85;;;;;;;1.55;75.56;96452.52;1807238;78;20924;-60
2021/11/30 09:07:53;;;;;;;7.47;4.30;;;;;;;1.59;75.82;96450.12;1825803;78;21149;-61
2021/11/30 09:10:22;;;;;;;4.78;4.03;;;;;;;1.60;75.64;96447.75;1815457;77;21080;-61
2021/11/30 09:12:49;;;;;;;5.55;4.47;;;;;;;1.58;75.89;96437.45;1834976;78;20943;-59
2021/11/30 09:15:16;;;;;;;7.78;5.47;;;;;;;1.64;76.25;96447.46;1831309;78;21015;-61
2021/11/30 09:17:44;;;;;;;5.90;4.33;;;;;;;1.68;75.76;96443.22;1822143;78;21401;-57
2021/11/30 09:20:12;;;;;;;5.80;4.58;;;;;;;1.68;75.68;96445.85;1820677;78;21291;-61
2021/11/30 09:22:39;;;;;;;5.40;4.50;;;;;;;1.65;75.72;96446.42;1822411;78;21737;-60
2021/11/30 09:25:09;;;;;;;6.33;4.90;;;;;;;1.62;75.72;96438.51;1822027;78;20848;-59
2021/11/30 09:27:37;;;;;;;6.03;4.67;;;;;;;1.59;76.12;96433.77;1821846;78;21434;-62
2021/11/30 09:30:07;;;;;;;9.35;3.98;;;;;;;1.59;76.38;96442.20;1821544;78;20876;-61
2021/11/30 09:32:35;;;;;;;5.95;4.08;;;;;;;1.57;76.36;96433.25;1819640;78;20980;-61
2021/11/30 09:35:04;;;;;;;6.30;4.35;;;;;;;1.55;76.56;96442.49;1805761;79;21678;-61
2021/11/30 09:37:37;;;;;;;5.78;4.10;;;;;;;1.53;76.89;96436.70;1817628;78;20926;-63
2021/11/30 09:40:03;;;;;;;5.72;4.40;;;;;;;1.50;76.85;96430.62;1796005;78;20958;-60
2021/11/30 09:42:32;;;;;;;5.12;4.08;;;;;;;1.48;76.82;96433.55;1807045;78;21044;-61
2021/11/30 09:45:05;;;;;;;5.47;4.10;;;;;;;1.46;76.93;96436.96;1783491;78;20988;-58
2021/11/30 09:47:33;;;;;;;4.95;3.90;;;;;;;1.47;76.95;96441.19;1771828;80;21634;-61
2021/11/30 09:50:00;;;;;;;6.15;3.98;;;;;;;1.51;77.02;96434.86;1772497;81;21035;-59
2021/11/30 09:52:28;;;;;;;5.28;4.00;;;;;;;1.54;77.04;96431.66;1722934;83;20989;-59
2021/11/30 09:54:55;;;;;;;5.00;4.00;;;;;;;1.56;76.99;96426.90;1715837;83;21510;-58
2021/11/30 09:57:22;;;;;;;5.28;4.00;;;;;;;1.56;77.07;96426.90;1773119;81;21043;-57
2021/11/30 09:59:49;;;;;;;5.80;4.12;;;;;;;1.61;77.32;96417.13;1722977;83;21591;-58
2021/11/30 10:02:17;;;;;;;6.20;4.50;;;;;;;1.67;77.00;96418.66;1714171;83;21557;-60
2021/11/30 10:04:44;;;;;;;6.37;4.58;;;;;;;1.64;77.13;96423.19;1787084;78;21156;-59
2021/11/30 10:07:10;;;;;;;6.05;4.42;;;;;;;1.56;77.51;96418.98;1820968;78;21019;-58
2021/11/30 10:09:38;;;;;;;7.62;4.53;;;;;;;1.49;77.85;96423.23;1820094;78;21046;-61
2021/11/30 10:12:08;;;;;;;5.80;4.50;;;;;;;1.50;78.23;96420.08;1820146;78;21814;-61
2021/11/30 10:14:39;;;;;;;7.03;5.00;;;;;;;1.51;78.67;96415.84;1821043;78;20959;-59
2021/11/30 10:17:19;;;;;;;7.35;5.10;;;;;;;1.57;78.58;96427.17;1821596;78;20919;-59
2021/11/30 10:20:10;;;;;;;129.87;36.53;;;;;;;1.60;78.57;96421.36;1821271;78;20999;-61
2021/11/30 10:22:51;;;;;;;5.22;3.92;;;;;;;1.63;78.62;96423.44;1821349;78;20972;-59
2021/11/30 10:25:34;;;;;;;5.72;4.40;;;;;;;1.60;78.64;96434.55;1821581;78;21111;-59
2021/11/30 10:28:11;;;;;;;5.95;4.00;;;;;;;1.52;79.87;96427.98;1788678;77;20869;-59
2021/11/30 10:30:41;;;;;;;7.28;5.12;;;;;;;1.43;79.94;96438.05;1757274;81;20941;-60
2021/11/30 10:33:22;;;;;;;7.05;4.67;;;;;;;1.32;80.21;96427.52;1757511;81;20945;-61
2021/11/30 10:35:58;;;;;;;6.37;4.40;;;;;;;1.27;80.45;96432.80;1756501;81;20948;-64
2021/11/30 10:38:33;;;;;;;;;;;;;;;1.23;80.57;96429.13;1813152;79;22075;-62
2021/11/30 10:41:21;;;;;;;5.93;4.83;;;;;;;1.20;80.75;96434.94;1808708;79;20377;-59
2021/11/30 10:44:00;;;;;;;73.90;12.25;;;;;;;1.20;80.65;96442.84;1815930;79;20988;-64
2021/11/30 10:46:31;;;;;;;5.90;4.47;;;;;;;1.18;80.29;96448.92;1816139;79;21533;-62
2021/11/30 10:49:00;;;;;;;6.47;4.30;;;;;;;1.16;79.42;96435.22;1816313;78;20975;-64
2021/11/30 10:51:30;;;;;;;6.30;5.03;;;;;;;1.16;79.37;96431.27;1809840;78;21261;-63
2021/11/30 10:53:59;;;;;;;6.92;4.67;;;;;;;1.17;79.45;96427.58;1759714;80;20843;-61
2021/11/30 10:56:27;;;;;;;6.12;4.20;;;;;;;1.20;79.53;96424.38;1755549;81;21079;-62
2021/11/30 10:58:56;;;;;;;5.72;4.40;;;;;;;1.20;78.83;96417.80;1766905;80;20988;-60
2021/11/30 11:01:26;;;;;;;7.10;4.28;;;;;;;1.22;79.12;96419.66;1786303;80;21528;-61
2021/11/30 11:04:13;;;;;;;5.22;4.08;;;;;;;1.24;78.93;96408.30;1788686;80;21085;-58
2021/11/30 11:06:42;;;;;;;7.37;4.45;;;;;;;1.25;79.34;96405.91;1788184;80;20919;-60
2021/11/30 11:09:11;;;;;;;7.85;4.30;;;;;;;1.32;79.04;96406.41;1757753;80;21484;-61
2021/11/30 11:11:45;;;;;;;5.80;4.50;;;;;;;1.39;79.03;96405.59;1788430;80;21084;-58
2021/11/30 11:14:24;;;;;;;5.85;4.50;;;;;;;1.45;79.00;96405.58;1789092;80;21114;-61
2021/11/30 11:16:53;;;;;;;7.22;4.10;;;;;;;1.53;78.86;96397.11;1788026;80;21863;-57
2021/11/30 11:19:42;;;;;;;9.83;5.20;;;;;;;1.58;78.61;96393.14;1758304;80;21588;-59
2021/11/30 11:22:23;;;;;;;5.10;3.77;;;;;;;1.61;78.19;96400.48;1787738;80;21014;-61
2021/11/30 11:25:00;;;;;;;5.20;4.03;;;;;;;1.63;77.13;96393.88;1786484;80;21398;-64
2021/11/30 11:27:39;;;;;;;6.22;3.60;;;;;;;1.66;77.25;96403.11;1789031;80;20875;-63
2021/11/30 11:30:07;;;;;;;5.03;3.72;;;;;;;1.71;77.24;96399.12;1757211;81;21767;-64
2021/11/30 11:32:34;;;;;;;4.97;4.10;;;;;;;1.82;77.32;96398.80;1756711;81;21568;-59
2021/11/30 11:35:02;;;;;;;6.42;4.97;;;;;;;1.85;75.40;96394.83;1766012;78;21058;-64
2021/11/30 11:37:30;;;;;;;6.62;5.03;;;;;;;1.86;75.51;96395.09;1772383;79;20968;-60
2021/11/30 11:39:56;;;;;;;6.35;4.42;;;;;;;1.82;75.10;96394.05;1774258;80;21005;-63
2021/11/30 11:42:23;;;;;;;6.17;4.30;;;;;;;1.73;75.54;96387.77;1757327;81;21136;-59
2021/11/30 11:44:52;;;;;;;6.45;4.42;;;;;;;1.66;75.37;96401.27;1757847;81;21227;-60
2021/11/30 11:47:23;;;;;;;5.85;4.80;;;;;;;1.65;75.78;96396.27;1771078;80;20930;-62
2021/11/30 11:49:51;;;;;;;5.33;4.05;;;;;;;1.68;76.13;96395.70;1788967;80;21413;-62
2021/11/30 11:52:31;;;;;;;7.62;4.83;;;;;;;1.69;76.22;96391.49;1784117;79;20961;-58
2021/11/30 11:55:03;;;;;;;8.40;5.12;;;;;;;1.68;76.29;96394.38;1778328;79;21626;-59
2021/11/30 11:57:30;;;;;;;7.08;4.83;;;;;;;1.69;76.76;96385.42;1774103;80;20997;-61
2021/11/30 12:00:17;;;;;;;8.95;5.70;;;;;;;1.69;76.51;96394.66;1789228;78;20844;-59
2021/11/30 12:02:56;;;;;;;7.30;5.53;;;;;;;1.70;76.77;96383.02;1789134;80;20892;-60
2021/11/30 12:05:44;;;;;;;11.55;5.58;;;;;;;1.75;77.26;96385.64;1793135;78;20925;-63
2021/11/30 12:08:23;;;;;;;6.47;4.92;;;;;;;1.82;77.71;96387.44;1782487;80;21132;-59
2021/11/30 12:10:50;;;;;;;4.08;2.87;;;;;;;1.99;77.62;96392.63;1782479;80;20973;-59
2021/11/30 12:13:22;;;;;;;5.00;3.20;;;;;;;2.11;72.45;96388.85;1782583;80;21321;-62
2021/11/30 12:16:10;;;;;;;6.08;3.15;;;;;;;2.10;73.01;96385.41;1779718;80;20898;-61
2021/11/30 12:18:53;;;;;;;3.00;2.70;;;;;;;2.09;71.74;96386.50;1771701;79;20848;-61
2021/11/30 12:21:23;;;;;;;6.60;3.20;;;;;;;2.05;69.81;96385.45;1752437;81;20959;-62
2021/11/30 12:23:53;;;;;;;4.15;2.92;;;;;;;1.96;69.68;96380.49;1719176;82;21022;-59
2021/11/30 12:26:34;;;;;;;4.17;3.12;;;;;;;1.93;69.85;96378.42;1742758;82;20927;-59
2021/11/30 12:29:20;;;;;;;3.80;2.75;;;;;;;1.93;70.01;96379.74;1743781;82;20947;-61
2021/11/30 12:31:51;;;;;;;4.87;2.75;;;;;;;1.90;68.86;96386.36;1743992;82;20982;-60
2021/11/30 12:40:14;;;;;;;5.90;2.87;;;;;;;1.69;66.84;96381.46;1720103;82;20971;-60
2021/11/30 12:42:49;;;;;;;2.98;2.17;;;;;;;1.66;67.20;96387.27;1716701;83;20942;-59
2021/11/30 12:45:24;;;;;;;4.35;2.40;;;;;;;1.67;66.61;96386.99;1716678;83;21023;-60
2021/11/30 12:48:13;;;;;;;3.12;2.17;;;;;;;1.64;66.73;96386.77;1700965;83;21458;-60
2021/11/30 12:50:40;;;;;;;4.03;2.22;;;;;;;1.61;66.39;96385.97;1714571;83;20979;-61
2021/11/30 12:53:07;;;;;;;4.22;2.30;;;;;;;1.55;65.97;96379.16;1716444;83;20887;-63
2021/11/30 12:55:52;;;;;;;4.45;2.60;;;;;;;1.46;65.50;96387.38;1716513;83;21055;-61
2021/11/30 12:58:44;;;;;;;2.87;2.05;;;;;;;1.39;66.22;96377.09;1716652;83;20935;-61
2021/11/30 13:01:19;;;;;;;6.05;2.40;;;;;;;1.40;66.89;96380.01;1714991;83;21142;-58
2021/11/30 13:03:46;;;;;;;4.25;2.70;;;;;;;1.39;66.59;96388.45;1715109;83;20940;-62
2021/11/30 13:06:12;;;;;;;5.22;2.60;;;;;;;1.42;66.82;96381.05;1680415;85;21026;-58
2021/11/30 13:09:06;;;;;;;5.08;2.83;;;;;;;1.44;67.42;96380.27;1715060;83;21435;-60
2021/11/30 13:11:34;;;;;;;5.62;2.45;;;;;;;1.45;67.35;96383.16;1715097;83;21519;-59
2021/11/30 13:14:06;;;;;;;5.50;2.62;;;;;;;1.42;65.95;96377.09;1715056;83;21130;-61
2021/11/30 13:16:39;;;;;;;4.55;2.72;;;;;;;1.43;66.30;96380.00;1714982;83;20916;-59
2021/11/30 13:19:09;;;;;;;5.50;2.70;;;;;;;1.50;66.65;96372.58;1710864;83;20936;-60
2021/11/30 13:21:41;;;;;;;5.70;3.22;;;;;;;1.56;66.91;96368.84;1701885;83;21440;-62
2021/11/30 13:24:12;;;;;;;4.00;2.70;;;;;;;1.56;67.45;96368.32;1715181;83;20876;-59
2021/11/30 13:26:41;;;;;;;4.70;3.22;;;;;;;1.55;67.21;96368.60;1715228;83;21269;-61
2021/11/30 13:29:22;;;;;;;6.67;3.80;;;;;;;1.53;67.43;96368.09;1715027;83;20889;-60
2021/11/30 13:32:03;;;;;;;5.37;3.45;;;;;;;1.47;67.57;96363.36;1680328;85;21403;-58
2021/11/30 13:34:30;;;;;;;5.28;3.42;;;;;;;1.44;68.02;96371.80;1714862;83;20971;-63
2021/11/30 13:36:59;;;;;;;8.23;3.55;;;;;;;1.42;68.27;96365.22;1714939;83;21471;-61
2021/11/30 13:39:25;;;;;;;5.12;3.92;;;;;;;1.38;68.86;96366.30;1684892;85;21749;-59
2021/11/30 13:41:52;;;;;;;4.15;3.12;;;;;;;1.33;68.51;96374.23;1707446;82;20977;-59
2021/11/30 13:44:19;;;;;;;5.00;3.55;;;;;;;1.26;68.83;96366.62;1686347;84;20903;-60
2021/11/30 13:46:46;;;;;;;5.15;3.70;;;;;;;1.23;69.43;96368.47;1705683;84;21029;-60
2021/11/30 13:49:14;;;;;;;5.92;3.75;;;;;;;1.24;69.58;96366.10;1705587;84;21005;-60
2021/11/30 13:51:43;;;;;;;5.47;3.60;;;;;;;1.22;70.06;96357.67;1703499;84;22273;-64
2021/11/30 13:54:17;;;;;;;3.95;3.37;;;;;;;1.18;70.20;96353.98;1662373;85;21273;-61
2021/11/30 13:57:05;;;;;;;6.87;3.50;;;;;;;1.15;70.62;96361.13;1681241;85;21445;-59
2021/11/30 13:59:56;;;;;;;4.62;3.80;;;;;;;1.11;70.90;96359.27;1686999;85;20925;-61
2021/11/30 14:02:38;;;;;;;5.12;3.72;;;;;;;1.09;70.96;96346.38;1755223;80;20988;-60
2021/11/30 14:05:07;;;;;;;4.97;3.92;;;;;;;1.05;70.94;96350.61;1779571;80;21158;-60
2021/11/30 14:07:37;;;;;;;6.15;4.30;;;;;;;1.05;71.39;96351.13;1713017;83;21480;-63
2021/11/30 14:10:19;;;;;;;4.60;3.65;;;;;;;1.07;71.20;96347.70;1712643;83;21047;-58
2021/11/30 14:12:48;;;;;;;6.37;3.92;;;;;;;1.04;71.14;96347.70;1695222;83;20917;-58
2021/11/30 14:15:15;;;;;;;5.80;4.22;;;;;;;1.03;71.32;96317.14;1677849;85;21007;-60
2021/11/30 14:17:43;;;;;;;5.80;3.80;;;;;;;0.98;71.63;96313.20;1676975;85;21746;-62
2021/11/30 14:20:23;;;;;;;5.08;3.55;;;;;;;0.92;71.64;96316.89;1677534;85;21436;-60
2021/11/30 14:22:50;;;;;;;5.22;3.30;;;;;;;0.88;71.65;96317.70;1677622;85;20961;-61
2021/11/30 14:25:20;;;;;;;4.40;3.87;;;;;;;0.81;71.62;96333.81;1676489;85;21615;-61
2021/11/30 14:27:58;;;;;;;5.17;3.87;;;;;;;0.79;71.57;96333.29;1677600;85;21000;-64
2021/11/30 14:30:36;;;;;;;5.08;3.70;;;;;;;0.78;71.34;96331.70;1678014;85;21121;-61
2021/11/30 14:33:18;;;;;;;4.47;3.47;;;;;;;0.78;71.47;96334.33;1677488;85;20999;-60
2021/11/30 14:35:55;;;;;;;5.05;3.80;;;;;;;0.79;71.49;96326.70;1677400;85;21048;-60
2021/11/30 14:38:32;;;;;;;5.10;3.90;;;;;;;0.79;71.27;96325.91;1677115;85;21397;-59
2021/11/30 14:41:10;;;;;;;4.87;4.22;;;;;;;0.79;70.69;96327.22;1677945;85;20920;-62
2021/11/30 14:43:38;;;;;;;8.48;5.50;;;;;;;0.77;70.80;96319.59;1677791;85;21097;-59
2021/11/30 14:46:05;;;;;;;8.65;5.00;;;;;;;0.76;70.62;96329.86;1677813;85;20956;-59
2021/11/30 14:48:38;;;;;;;5.92;4.90;;;;;;;0.76;70.46;96325.91;1680965;85;21003;-59
2021/11/30 14:51:10;;;;;;;7.25;4.72;;;;;;;0.79;70.79;96321.43;1677819;85;21016;-60
